sensor_id;sensor_type;location;lat;lon;timestamp;P1;durP1;ratioP1;P2;durP2;ratioP2
2558;SDS011;1289;53.488;10.006;2023-02-13T00:01:37;23.07;;;16.93;;
2558;SDS011;1289;53.488;10.006;2023-02-13T00:04:04;19.20;;;15.77;;
2558;SDS011;1289;53.488;10.006;2023-02-13T00:06:31;24.67;;;16.90;;
2558;SDS011;1289;53.488;10.006;2023-02-13T00:08:58;20.90;;;16.50;;
2558;SDS011;1289;53.488;10.006;2023-02-13T00:11:26;18.40;;;15.17;;
2558;SDS011;1289;53.488;10.006;2023-02-13T00:13:53;24.20;;;18.07;;
2558;SDS011;1289;53.488;10.006;2023-02-13T00:16:20;24.47;;;16.90;;
2558;SDS011;1289;53.488;10.006;2023-02-13T00:18:46;24.17;;;17.50;;
2558;SDS011;1289;53.488;10.006;2023-02-13T00:21:13;23.57;;;16.60;;
2558;SDS011;1289;53.488;10.006;2023-02-13T00:23:39;21.20;;;15.37;;
2558;SDS011;1289;53.488;10.006;2023-02-13T00:26:08;22.70;;;16.70;;
2558;SDS011;1289;53.488;10.006;2023-02-13T00:28:37;19.90;;;15.87;;
2558;SDS011;1289;53.488;10.006;2023-02-13T00:31:05;24.17;;;17.23;;
2558;SDS011;1289;53.488;10.006;2023-02-13T00:33:33;20.43;;;17.37;;
2558;SDS011;1289;53.488;10.006;2023-02-13T00:36:03;22.33;;;17.80;;
2558;SDS011;1289;53.488;10.006;2023-02-13T00:38:31;21.07;;;15.90;;
2558;SDS011;1289;53.488;10.006;2023-02-13T00:40:58;21.43;;;16.73;;
2558;SDS011;1289;53.488;10.006;2023-02-13T00:43:26;24.63;;;17.30;;
2558;SDS011;1289;53.488;10.006;2023-02-13T00:45:52;21.43;;;15.73;;
2558;SDS011;1289;53.488;10.006;2023-02-13T00:48:19;20.83;;;16.63;;
2558;SDS011;1289;53.488;10.006;2023-02-13T00:50:46;19.97;;;15.50;;
2558;SDS011;1289;53.488;10.006;2023-02-13T00:53:13;20.17;;;15.30;;
2558;SDS011;1289;53.488;10.006;2023-02-13T00:55:39;21.90;;;15.43;;
2558;SDS011;1289;53.488;10.006;2023-02-13T00:58:07;23.50;;;16.53;;
2558;SDS011;1289;53.488;10.006;2023-02-13T01:00:35;18.13;;;14.23;;
2558;SDS011;1289;53.488;10.006;2023-02-13T01:03:03;18.70;;;14.73;;
2558;SDS011;1289;53.488;10.006;2023-02-13T01:05:30;19.40;;;13.87;;
2558;SDS011;1289;53.488;10.006;2023-02-13T01:07:56;20.47;;;14.67;;
2558;SDS011;1289;53.488;10.006;2023-02-13T01:10:23;21.27;;;13.03;;
2558;SDS011;1289;53.488;10.006;2023-02-13T01:12:50;17.50;;;14.03;;
2558;SDS011;1289;53.488;10.006;2023-02-13T01:15:17;15.87;;;13.10;;
2558;SDS011;1289;53.488;10.006;2023-02-13T01:17:46;19.83;;;15.60;;
2558;SDS011;1289;53.488;10.006;2023-02-13T01:20:13;19.40;;;14.40;;
2558;SDS011;1289;53.488;10.006;2023-02-13T01:22:40;17.43;;;13.60;;
2558;SDS011;1289;53.488;10.006;2023-02-13T01:25:09;23.00;;;15.77;;
2558;SDS011;1289;53.488;10.006;2023-02-13T01:27:36;17.33;;;14.43;;
2558;SDS011;1289;53.488;10.006;2023-02-13T01:30:03;19.40;;;15.33;;
2558;SDS011;1289;53.488;10.006;2023-02-13T01:32:34;18.97;;;14.10;;
2558;SDS011;1289;53.488;10.006;2023-02-13T01:35:02;17.10;;;14.97;;
2558;SDS011;1289;53.488;10.006;2023-02-13T01:37:29;17.13;;;14.63;;
2558;SDS011;1289;53.488;10.006;2023-02-13T01:39:57;18.67;;;14.47;;
2558;SDS011;1289;53.488;10.006;2023-02-13T01:42:24;17.20;;;14.33;;
2558;SDS011;1289;53.488;10.006;2023-02-13T01:44:53;22.43;;;15.60;;
2558;SDS011;1289;53.488;10.006;2023-02-13T01:47:24;17.57;;;14.20;;
2558;SDS011;1289;53.488;10.006;2023-02-13T01:49:55;17.30;;;14.27;;
2558;SDS011;1289;53.488;10.006;2023-02-13T01:52:29;18.03;;;14.20;;
2558;SDS011;1289;53.488;10.006;2023-02-13T01:54:56;19.67;;;14.07;;
2558;SDS011;1289;53.488;10.006;2023-02-13T01:57:22;19.27;;;14.83;;
2558;SDS011;1289;53.488;10.006;2023-02-13T01:59:51;20.13;;;13.33;;
2558;SDS011;1289;53.488;10.006;2023-02-13T02:02:18;19.17;;;13.60;;
2558;SDS011;1289;53.488;10.006;2023-02-13T02:04:46;14.27;;;12.57;;
2558;SDS011;1289;53.488;10.006;2023-02-13T02:07:18;16.33;;;13.27;;
2558;SDS011;1289;53.488;10.006;2023-02-13T02:09:49;15.60;;;13.80;;
2558;SDS011;1289;53.488;10.006;2023-02-13T02:12:19;14.77;;;12.40;;
2558;SDS011;1289;53.488;10.006;2023-02-13T02:14:49;15.83;;;12.87;;
2558;SDS011;1289;53.488;10.006;2023-02-13T02:17:20;15.27;;;13.13;;
2558;SDS011;1289;53.488;10.006;2023-02-13T02:19:48;16.00;;;12.13;;
2558;SDS011;1289;53.488;10.006;2023-02-13T02:22:35;13.37;;;11.03;;
2558;SDS011;1289;53.488;10.006;2023-02-13T02:25:44;14.00;;;11.83;;
2558;SDS011;1289;53.488;10.006;2023-02-13T02:28:46;13.53;;;11.37;;
2558;SDS011;1289;53.488;10.006;2023-02-13T02:34:28;11.87;;;10.67;;
2558;SDS011;1289;53.488;10.006;2023-02-13T02:37:03;10.93;;;9.10;;
2558;SDS011;1289;53.488;10.006;2023-02-13T02:39:39;14.00;;;10.73;;
2558;SDS011;1289;53.488;10.006;2023-02-13T02:42:12;13.70;;;9.73;;
2558;SDS011;1289;53.488;10.006;2023-02-13T02:44:47;10.27;;;9.20;;
2558;SDS011;1289;53.488;10.006;2023-02-13T02:47:22;11.53;;;10.33;;
2558;SDS011;1289;53.488;10.006;2023-02-13T02:50:11;10.90;;;8.87;;
2558;SDS011;1289;53.488;10.006;2023-02-13T02:52:44;12.23;;;10.17;;
2558;SDS011;1289;53.488;10.006;2023-02-13T02:55:17;9.83;;;8.80;;
2558;SDS011;1289;53.488;10.006;2023-02-13T02:57:57;11.23;;;8.97;;
2558;SDS011;1289;53.488;10.006;2023-02-13T03:00:45;10.00;;;9.00;;
2558;SDS011;1289;53.488;10.006;2023-02-13T03:03:34;12.43;;;9.60;;
2558;SDS011;1289;53.488;10.006;2023-02-13T03:06:20;11.63;;;9.30;;
2558;SDS011;1289;53.488;10.006;2023-02-13T03:08:51;9.77;;;8.70;;
2558;SDS011;1289;53.488;10.006;2023-02-13T03:11:36;12.07;;;10.70;;
2558;SDS011;1289;53.488;10.006;2023-02-13T03:14:21;10.03;;;8.90;;
2558;SDS011;1289;53.488;10.006;2023-02-13T03:16:51;18.33;;;10.40;;
2558;SDS011;1289;53.488;10.006;2023-02-13T03:19:42;10.10;;;9.03;;
2558;SDS011;1289;53.488;10.006;2023-02-13T03:22:32;11.90;;;9.53;;
2558;SDS011;1289;53.488;10.006;2023-02-13T03:25:06;10.37;;;8.90;;
2558;SDS011;1289;53.488;10.006;2023-02-13T03:27:38;14.33;;;9.97;;
2558;SDS011;1289;53.488;10.006;2023-02-13T03:30:29;13.40;;;9.53;;
2558;SDS011;1289;53.488;10.006;2023-02-13T03:33:08;11.90;;;10.70;;
2558;SDS011;1289;53.488;10.006;2023-02-13T03:35:44;10.60;;;9.30;;
2558;SDS011;1289;53.488;10.006;2023-02-13T03:38:31;12.27;;;10.07;;
2558;SDS011;1289;53.488;10.006;2023-02-13T03:41:03;11.47;;;9.90;;
2558;SDS011;1289;53.488;10.006;2023-02-13T03:43:46;10.00;;;9.00;;
2558;SDS011;1289;53.488;10.006;2023-02-13T03:46:17;16.47;;;10.23;;
2558;SDS011;1289;53.488;10.006;2023-02-13T03:48:45;11.47;;;8.67;;
2558;SDS011;1289;53.488;10.006;2023-02-13T03:51:32;11.20;;;9.43;;
2558;SDS011;1289;53.488;10.006;2023-02-13T03:54:02;12.90;;;10.73;;
2558;SDS011;1289;53.488;10.006;2023-02-13T03:56:31;17.23;;;11.30;;
2558;SDS011;1289;53.488;10.006;2023-02-13T03:59:18;11.50;;;10.40;;
2558;SDS011;1289;53.488;10.006;2023-02-13T04:01:49;12.50;;;11.23;;
2558;SDS011;1289;53.488;10.006;2023-02-13T04:04:24;14.90;;;11.90;;
2558;SDS011;1289;53.488;10.006;2023-02-13T04:06:56;16.27;;;12.57;;
2558;SDS011;1289;53.488;10.006;2023-02-13T04:09:26;13.30;;;11.47;;
2558;SDS011;1289;53.488;10.006;2023-02-13T04:11:55;16.17;;;12.20;;
2558;SDS011;1289;53.488;10.006;2023-02-13T04:14:52;13.40;;;10.27;;
2558;SDS011;1289;53.488;10.006;2023-02-13T04:17:23;12.87;;;11.10;;
2558;SDS011;1289;53.488;10.006;2023-02-13T04:19:50;14.20;;;12.07;;
2558;SDS011;1289;53.488;10.006;2023-02-13T04:22:18;14.37;;;11.30;;
2558;SDS011;1289;53.488;10.006;2023-02-13T04:24:45;15.10;;;12.00;;
2558;SDS011;1289;53.488;10.006;2023-02-13T04:27:12;14.43;;;12.03;;
2558;SDS011;1289;53.488;10.006;2023-02-13T04:29:40;14.10;;;11.10;;
2558;SDS011;1289;53.488;10.006;2023-02-13T04:32:09;14.57;;;12.30;;
2558;SDS011;1289;53.488;10.006;2023-02-13T04:34:36;14.93;;;12.03;;
2558;SDS011;1289;53.488;10.006;2023-02-13T04:37:03;13.93;;;11.60;;
2558;SDS011;1289;53.488;10.006;2023-02-13T04:39:31;14.53;;;13.03;;
2558;SDS011;1289;53.488;10.006;2023-02-13T04:41:58;15.90;;;12.17;;
2558;SDS011;1289;53.488;10.006;2023-02-13T04:44:25;20.63;;;13.70;;
2558;SDS011;1289;53.488;10.006;2023-02-13T04:46:51;15.27;;;12.97;;
2558;SDS011;1289;53.488;10.006;2023-02-13T04:49:18;13.63;;;12.13;;
2558;SDS011;1289;53.488;10.006;2023-02-13T04:51:44;13.00;;;11.60;;
2558;SDS011;1289;53.488;10.006;2023-02-13T04:54:11;13.03;;;11.70;;
2558;SDS011;1289;53.488;10.006;2023-02-13T04:56:39;15.00;;;12.13;;
2558;SDS011;1289;53.488;10.006;2023-02-13T04:59:05;15.37;;;11.87;;
2558;SDS011;1289;53.488;10.006;2023-02-13T05:01:32;14.43;;;11.53;;
2558;SDS011;1289;53.488;10.006;2023-02-13T05:03:59;15.03;;;11.87;;
2558;SDS011;1289;53.488;10.006;2023-02-13T05:06:25;14.93;;;11.03;;
2558;SDS011;1289;53.488;10.006;2023-02-13T05:08:52;13.37;;;11.00;;
2558;SDS011;1289;53.488;10.006;2023-02-13T05:11:18;19.83;;;11.83;;
2558;SDS011;1289;53.488;10.006;2023-02-13T05:13:46;14.93;;;11.10;;
2558;SDS011;1289;53.488;10.006;2023-02-13T05:16:13;15.07;;;11.30;;
2558;SDS011;1289;53.488;10.006;2023-02-13T05:18:40;15.67;;;13.27;;
2558;SDS011;1289;53.488;10.006;2023-02-13T05:21:06;17.03;;;11.73;;
2558;SDS011;1289;53.488;10.006;2023-02-13T05:23:50;12.73;;;11.20;;
2558;SDS011;1289;53.488;10.006;2023-02-13T05:26:17;17.53;;;12.70;;
2558;SDS011;1289;53.488;10.006;2023-02-13T05:28:43;15.03;;;12.27;;
2558;SDS011;1289;53.488;10.006;2023-02-13T05:31:29;15.30;;;11.90;;
2558;SDS011;1289;53.488;10.006;2023-02-13T05:33:56;19.93;;;13.13;;
2558;SDS011;1289;53.488;10.006;2023-02-13T05:36:22;14.17;;;11.80;;
2558;SDS011;1289;53.488;10.006;2023-02-13T05:38:49;16.07;;;12.70;;
2558;SDS011;1289;53.488;10.006;2023-02-13T05:41:16;16.17;;;12.47;;
2558;SDS011;1289;53.488;10.006;2023-02-13T05:43:42;13.60;;;11.50;;
2558;SDS011;1289;53.488;10.006;2023-02-13T05:46:09;13.63;;;11.90;;
2558;SDS011;1289;53.488;10.006;2023-02-13T05:48:37;15.87;;;12.30;;
2558;SDS011;1289;53.488;10.006;2023-02-13T05:51:04;18.30;;;13.77;;
2558;SDS011;1289;53.488;10.006;2023-02-13T05:53:30;17.13;;;12.77;;
2558;SDS011;1289;53.488;10.006;2023-02-13T05:55:59;14.30;;;12.40;;
2558;SDS011;1289;53.488;10.006;2023-02-13T05:58:26;15.80;;;12.20;;
2558;SDS011;1289;53.488;10.006;2023-02-13T06:00:54;13.67;;;12.00;;
2558;SDS011;1289;53.488;10.006;2023-02-13T06:03:21;14.87;;;12.90;;
2558;SDS011;1289;53.488;10.006;2023-02-13T06:05:49;17.93;;;12.33;;
2558;SDS011;1289;53.488;10.006;2023-02-13T06:08:16;17.20;;;13.00;;
2558;SDS011;1289;53.488;10.006;2023-02-13T06:10:43;17.60;;;13.40;;
2558;SDS011;1289;53.488;10.006;2023-02-13T06:13:09;17.10;;;12.43;;
2558;SDS011;1289;53.488;10.006;2023-02-13T06:15:36;17.20;;;13.30;;
2558;SDS011;1289;53.488;10.006;2023-02-13T06:18:02;15.30;;;12.90;;
2558;SDS011;1289;53.488;10.006;2023-02-13T06:20:29;19.00;;;14.90;;
2558;SDS011;1289;53.488;10.006;2023-02-13T06:22:57;17.60;;;14.27;;
2558;SDS011;1289;53.488;10.006;2023-02-13T06:25:23;17.60;;;14.23;;
2558;SDS011;1289;53.488;10.006;2023-02-13T06:27:50;17.40;;;14.70;;
2558;SDS011;1289;53.488;10.006;2023-02-13T06:30:17;18.20;;;13.40;;
2558;SDS011;1289;53.488;10.006;2023-02-13T06:32:44;22.47;;;16.60;;
2558;SDS011;1289;53.488;10.006;2023-02-13T06:35:12;30.43;;;21.67;;
2558;SDS011;1289;53.488;10.006;2023-02-13T06:37:38;31.43;;;22.30;;
2558;SDS011;1289;53.488;10.006;2023-02-13T06:40:07;28.13;;;20.50;;
2558;SDS011;1289;53.488;10.006;2023-02-13T06:42:35;25.40;;;19.23;;
2558;SDS011;1289;53.488;10.006;2023-02-13T06:45:01;26.77;;;18.90;;
2558;SDS011;1289;53.488;10.006;2023-02-13T06:47:28;18.67;;;14.63;;
2558;SDS011;1289;53.488;10.006;2023-02-13T06:49:55;21.13;;;16.50;;
2558;SDS011;1289;53.488;10.006;2023-02-13T06:52:21;20.60;;;14.60;;
2558;SDS011;1289;53.488;10.006;2023-02-13T06:54:48;18.70;;;14.80;;
2558;SDS011;1289;53.488;10.006;2023-02-13T06:57:16;19.70;;;15.00;;
2558;SDS011;1289;53.488;10.006;2023-02-13T06:59:43;17.17;;;13.60;;
2558;SDS011;1289;53.488;10.006;2023-02-13T07:02:09;19.53;;;13.00;;
2558;SDS011;1289;53.488;10.006;2023-02-13T07:04:36;16.30;;;12.43;;
2558;SDS011;1289;53.488;10.006;2023-02-13T07:07:02;17.20;;;13.60;;
2558;SDS011;1289;53.488;10.006;2023-02-13T07:09:29;19.37;;;14.47;;
2558;SDS011;1289;53.488;10.006;2023-02-13T07:11:56;19.20;;;13.37;;
2558;SDS011;1289;53.488;10.006;2023-02-13T07:14:24;17.30;;;14.30;;
2558;SDS011;1289;53.488;10.006;2023-02-13T07:16:51;19.50;;;14.50;;
2558;SDS011;1289;53.488;10.006;2023-02-13T07:19:18;18.10;;;13.03;;
2558;SDS011;1289;53.488;10.006;2023-02-13T07:21:44;19.80;;;14.90;;
2558;SDS011;1289;53.488;10.006;2023-02-13T07:24:11;18.27;;;14.80;;
2558;SDS011;1289;53.488;10.006;2023-02-13T07:26:37;21.70;;;14.73;;
2558;SDS011;1289;53.488;10.006;2023-02-13T07:29:04;17.73;;;14.37;;
2558;SDS011;1289;53.488;10.006;2023-02-13T07:31:32;16.87;;;13.30;;
2558;SDS011;1289;53.488;10.006;2023-02-13T07:33:59;22.53;;;15.10;;
2558;SDS011;1289;53.488;10.006;2023-02-13T07:36:26;19.97;;;15.87;;
2558;SDS011;1289;53.488;10.006;2023-02-13T07:38:52;17.90;;;13.43;;
2558;SDS011;1289;53.488;10.006;2023-02-13T07:41:19;21.07;;;17.53;;
2558;SDS011;1289;53.488;10.006;2023-02-13T07:43:45;21.43;;;15.50;;
2558;SDS011;1289;53.488;10.006;2023-02-13T07:46:12;24.20;;;17.63;;
2558;SDS011;1289;53.488;10.006;2023-02-13T07:48:40;25.70;;;18.20;;
2558;SDS011;1289;53.488;10.006;2023-02-13T07:51:06;22.83;;;18.80;;
2558;SDS011;1289;53.488;10.006;2023-02-13T07:53:33;23.77;;;17.97;;
2558;SDS011;1289;53.488;10.006;2023-02-13T07:56:03;22.17;;;17.47;;
2558;SDS011;1289;53.488;10.006;2023-02-13T07:58:31;20.97;;;16.90;;
2558;SDS011;1289;53.488;10.006;2023-02-13T08:00:57;22.00;;;17.67;;
2558;SDS011;1289;53.488;10.006;2023-02-13T08:03:24;22.10;;;15.80;;
2558;SDS011;1289;53.488;10.006;2023-02-13T08:05:52;19.80;;;16.00;;
2558;SDS011;1289;53.488;10.006;2023-02-13T08:08:18;21.00;;;15.57;;
2558;SDS011;1289;53.488;10.006;2023-02-13T08:10:45;20.60;;;15.50;;
2558;SDS011;1289;53.488;10.006;2023-02-13T08:13:29;23.83;;;17.67;;
2558;SDS011;1289;53.488;10.006;2023-02-13T08:15:56;20.63;;;15.50;;
2558;SDS011;1289;53.488;10.006;2023-02-13T08:18:23;21.60;;;16.23;;
2558;SDS011;1289;53.488;10.006;2023-02-13T08:20:50;22.43;;;16.70;;
2558;SDS011;1289;53.488;10.006;2023-02-13T08:23:17;21.13;;;15.90;;
2558;SDS011;1289;53.488;10.006;2023-02-13T08:25:44;24.00;;;18.13;;
2558;SDS011;1289;53.488;10.006;2023-02-13T08:28:11;19.47;;;14.43;;
2558;SDS011;1289;53.488;10.006;2023-02-13T08:30:38;18.50;;;14.80;;
2558;SDS011;1289;53.488;10.006;2023-02-13T08:33:05;19.30;;;14.77;;
2558;SDS011;1289;53.488;10.006;2023-02-13T08:35:31;22.07;;;16.23;;
2558;SDS011;1289;53.488;10.006;2023-02-13T08:38:01;21.77;;;14.90;;
2558;SDS011;1289;53.488;10.006;2023-02-13T08:40:28;21.37;;;14.83;;
2558;SDS011;1289;53.488;10.006;2023-02-13T08:42:58;21.50;;;15.20;;
2558;SDS011;1289;53.488;10.006;2023-02-13T08:45:25;18.80;;;14.80;;
2558;SDS011;1289;53.488;10.006;2023-02-13T08:47:54;19.53;;;14.47;;
2558;SDS011;1289;53.488;10.006;2023-02-13T08:50:21;20.43;;;16.00;;
2558;SDS011;1289;53.488;10.006;2023-02-13T08:52:48;23.70;;;16.30;;
2558;SDS011;1289;53.488;10.006;2023-02-13T08:55:17;21.50;;;15.37;;
2558;SDS011;1289;53.488;10.006;2023-02-13T08:57:43;19.00;;;13.50;;
2558;SDS011;1289;53.488;10.006;2023-02-13T09:00:10;18.90;;;13.70;;
2558;SDS011;1289;53.488;10.006;2023-02-13T09:02:37;19.60;;;15.70;;
2558;SDS011;1289;53.488;10.006;2023-02-13T09:05:04;18.10;;;14.60;;
2558;SDS011;1289;53.488;10.006;2023-02-13T09:07:31;21.20;;;16.60;;
2558;SDS011;1289;53.488;10.006;2023-02-13T09:09:57;22.83;;;16.20;;
2558;SDS011;1289;53.488;10.006;2023-02-13T09:12:25;20.60;;;15.40;;
2558;SDS011;1289;53.488;10.006;2023-02-13T09:14:52;21.80;;;16.30;;
2558;SDS011;1289;53.488;10.006;2023-02-13T09:17:18;23.83;;;15.73;;
2558;SDS011;1289;53.488;10.006;2023-02-13T09:19:45;22.10;;;16.60;;
2558;SDS011;1289;53.488;10.006;2023-02-13T09:22:12;20.13;;;15.77;;
2558;SDS011;1289;53.488;10.006;2023-02-13T09:24:41;21.97;;;17.57;;
2558;SDS011;1289;53.488;10.006;2023-02-13T09:27:07;28.53;;;21.47;;
2558;SDS011;1289;53.488;10.006;2023-02-13T09:29:36;21.80;;;15.17;;
2558;SDS011;1289;53.488;10.006;2023-02-13T09:32:03;20.23;;;14.87;;
2558;SDS011;1289;53.488;10.006;2023-02-13T09:34:29;20.10;;;15.93;;
2558;SDS011;1289;53.488;10.006;2023-02-13T09:36:56;21.40;;;15.40;;
2558;SDS011;1289;53.488;10.006;2023-02-13T09:39:23;18.50;;;16.10;;
2558;SDS011;1289;53.488;10.006;2023-02-13T09:41:50;18.00;;;14.13;;
2558;SDS011;1289;53.488;10.006;2023-02-13T09:44:18;19.13;;;14.23;;
2558;SDS011;1289;53.488;10.006;2023-02-13T09:47:05;18.00;;;13.80;;
2558;SDS011;1289;53.488;10.006;2023-02-13T09:49:36;20.37;;;18.00;;
2558;SDS011;1289;53.488;10.006;2023-02-13T09:52:04;22.13;;;15.47;;
2558;SDS011;1289;53.488;10.006;2023-02-13T09:54:31;16.57;;;14.37;;
2558;SDS011;1289;53.488;10.006;2023-02-13T09:56:58;19.57;;;15.50;;
2558;SDS011;1289;53.488;10.006;2023-02-13T09:59:35;20.13;;;14.50;;
2558;SDS011;1289;53.488;10.006;2023-02-13T10:02:13;19.63;;;14.23;;
2558;SDS011;1289;53.488;10.006;2023-02-13T10:04:47;20.57;;;15.40;;
2558;SDS011;1289;53.488;10.006;2023-02-13T10:07:18;19.77;;;15.60;;
2558;SDS011;1289;53.488;10.006;2023-02-13T10:09:50;23.03;;;16.23;;
2558;SDS011;1289;53.488;10.006;2023-02-13T10:12:25;19.03;;;14.23;;
2558;SDS011;1289;53.488;10.006;2023-02-13T10:14:58;19.03;;;15.00;;
2558;SDS011;1289;53.488;10.006;2023-02-13T10:17:37;18.37;;;15.13;;
2558;SDS011;1289;53.488;10.006;2023-02-13T10:20:06;18.80;;;14.47;;
2558;SDS011;1289;53.488;10.006;2023-02-13T10:22:50;25.60;;;15.17;;
2558;SDS011;1289;53.488;10.006;2023-02-13T10:25:21;18.83;;;13.47;;
2558;SDS011;1289;53.488;10.006;2023-02-13T10:27:50;18.30;;;13.93;;
2558;SDS011;1289;53.488;10.006;2023-02-13T10:30:21;18.87;;;14.10;;
2558;SDS011;1289;53.488;10.006;2023-02-13T10:32:53;18.67;;;14.83;;
2558;SDS011;1289;53.488;10.006;2023-02-13T10:35:37;16.57;;;14.40;;
2558;SDS011;1289;53.488;10.006;2023-02-13T10:38:11;19.37;;;13.97;;
2558;SDS011;1289;53.488;10.006;2023-02-13T10:40:42;20.27;;;14.07;;
2558;SDS011;1289;53.488;10.006;2023-02-13T10:43:17;15.40;;;11.73;;
2558;SDS011;1289;53.488;10.006;2023-02-13T10:45:56;15.37;;;12.13;;
2558;SDS011;1289;53.488;10.006;2023-02-13T10:48:36;15.37;;;12.17;;
2558;SDS011;1289;53.488;10.006;2023-02-13T10:51:10;15.53;;;11.67;;
2558;SDS011;1289;53.488;10.006;2023-02-13T10:53:43;16.70;;;13.07;;
2558;SDS011;1289;53.488;10.006;2023-02-13T10:56:18;15.00;;;11.67;;
2558;SDS011;1289;53.488;10.006;2023-02-13T10:58:52;15.30;;;12.10;;
2558;SDS011;1289;53.488;10.006;2023-02-13T11:01:24;16.53;;;12.73;;
2558;SDS011;1289;53.488;10.006;2023-02-13T11:04:02;14.27;;;12.30;;
2558;SDS011;1289;53.488;10.006;2023-02-13T11:06:32;14.20;;;10.57;;
2558;SDS011;1289;53.488;10.006;2023-02-13T11:09:00;14.20;;;11.60;;
2558;SDS011;1289;53.488;10.006;2023-02-13T11:11:27;13.37;;;11.87;;
2558;SDS011;1289;53.488;10.006;2023-02-13T11:14:01;16.07;;;13.30;;
2558;SDS011;1289;53.488;10.006;2023-02-13T11:16:37;16.53;;;12.70;;
2558;SDS011;1289;53.488;10.006;2023-02-13T11:19:12;16.30;;;12.43;;
2558;SDS011;1289;53.488;10.006;2023-02-13T11:21:42;15.40;;;12.33;;
2558;SDS011;1289;53.488;10.006;2023-02-13T11:24:15;14.43;;;12.40;;
2558;SDS011;1289;53.488;10.006;2023-02-13T11:26:43;15.57;;;12.33;;
2558;SDS011;1289;53.488;10.006;2023-02-13T11:29:15;15.50;;;12.20;;
2558;SDS011;1289;53.488;10.006;2023-02-13T11:31:42;16.30;;;13.60;;
2558;SDS011;1289;53.488;10.006;2023-02-13T11:34:23;15.93;;;12.63;;
2558;SDS011;1289;53.488;10.006;2023-02-13T11:36:52;22.33;;;14.40;;
2558;SDS011;1289;53.488;10.006;2023-02-13T11:39:20;19.83;;;14.47;;
2558;SDS011;1289;53.488;10.006;2023-02-13T11:41:47;16.83;;;11.87;;
2558;SDS011;1289;53.488;10.006;2023-02-13T11:44:19;17.30;;;13.10;;
2558;SDS011;1289;53.488;10.006;2023-02-13T11:46:49;16.23;;;13.27;;
2558;SDS011;1289;53.488;10.006;2023-02-13T11:49:18;20.67;;;15.83;;
2558;SDS011;1289;53.488;10.006;2023-02-13T11:51:47;18.93;;;14.37;;
2558;SDS011;1289;53.488;10.006;2023-02-13T11:54:22;16.50;;;13.43;;
2558;SDS011;1289;53.488;10.006;2023-02-13T11:56:51;17.20;;;11.77;;
2558;SDS011;1289;53.488;10.006;2023-02-13T11:59:21;16.97;;;13.37;;
2558;SDS011;1289;53.488;10.006;2023-02-13T12:01:52;15.97;;;11.90;;
2558;SDS011;1289;53.488;10.006;2023-02-13T12:04:27;17.13;;;12.67;;
2558;SDS011;1289;53.488;10.006;2023-02-13T12:06:59;16.43;;;13.60;;
2558;SDS011;1289;53.488;10.006;2023-02-13T12:09:27;14.93;;;11.60;;
2558;SDS011;1289;53.488;10.006;2023-02-13T12:11:56;16.70;;;12.13;;
2558;SDS011;1289;53.488;10.006;2023-02-13T12:14:24;14.93;;;11.50;;
2558;SDS011;1289;53.488;10.006;2023-02-13T12:16:53;19.17;;;14.90;;
2558;SDS011;1289;53.488;10.006;2023-02-13T12:19:23;17.00;;;12.40;;
2558;SDS011;1289;53.488;10.006;2023-02-13T12:22:02;15.43;;;12.43;;
2558;SDS011;1289;53.488;10.006;2023-02-13T12:24:44;18.57;;;12.30;;
2558;SDS011;1289;53.488;10.006;2023-02-13T12:27:37;17.83;;;12.40;;
2558;SDS011;1289;53.488;10.006;2023-02-13T12:30:25;16.27;;;13.07;;
2558;SDS011;1289;53.488;10.006;2023-02-13T12:33:12;12.87;;;11.47;;
2558;SDS011;1289;53.488;10.006;2023-02-13T12:35:49;14.17;;;11.67;;
2558;SDS011;1289;53.488;10.006;2023-02-13T12:38:29;16.23;;;13.50;;
2558;SDS011;1289;53.488;10.006;2023-02-13T12:41:13;20.80;;;13.87;;
2558;SDS011;1289;53.488;10.006;2023-02-13T12:43:53;15.03;;;11.30;;
2558;SDS011;1289;53.488;10.006;2023-02-13T12:46:29;17.77;;;12.90;;
2558;SDS011;1289;53.488;10.006;2023-02-13T12:49:01;16.87;;;12.50;;
2558;SDS011;1289;53.488;10.006;2023-02-13T12:51:40;16.80;;;12.90;;
2558;SDS011;1289;53.488;10.006;2023-02-13T12:54:24;16.77;;;12.70;;
2558;SDS011;1289;53.488;10.006;2023-02-13T12:57:02;17.23;;;13.60;;
2558;SDS011;1289;53.488;10.006;2023-02-13T12:59:38;17.40;;;13.97;;
2558;SDS011;1289;53.488;10.006;2023-02-13T13:02:17;16.20;;;12.60;;
2558;SDS011;1289;53.488;10.006;2023-02-13T13:05:06;17.07;;;13.57;;
2558;SDS011;1289;53.488;10.006;2023-02-13T13:07:45;17.37;;;12.97;;
2558;SDS011;1289;53.488;10.006;2023-02-13T13:10:34;24.10;;;14.60;;
2558;SDS011;1289;53.488;10.006;2023-02-13T13:13:06;21.03;;;16.23;;
2558;SDS011;1289;53.488;10.006;2023-02-13T13:15:38;20.80;;;15.53;;
2558;SDS011;1289;53.488;10.006;2023-02-13T13:18:16;21.00;;;15.53;;
2558;SDS011;1289;53.488;10.006;2023-02-13T13:20:50;18.47;;;14.67;;
2558;SDS011;1289;53.488;10.006;2023-02-13T13:23:21;18.40;;;14.70;;
2558;SDS011;1289;53.488;10.006;2023-02-13T13:25:57;24.10;;;16.50;;
2558;SDS011;1289;53.488;10.006;2023-02-13T13:28:28;21.77;;;14.30;;
2558;SDS011;1289;53.488;10.006;2023-02-13T13:30:58;20.97;;;15.07;;
2558;SDS011;1289;53.488;10.006;2023-02-13T13:33:25;21.30;;;16.30;;
2558;SDS011;1289;53.488;10.006;2023-02-13T13:35:54;24.03;;;16.87;;
2558;SDS011;1289;53.488;10.006;2023-02-13T13:38:28;22.73;;;17.50;;
2558;SDS011;1289;53.488;10.006;2023-02-13T13:41:07;20.60;;;14.90;;
2558;SDS011;1289;53.488;10.006;2023-02-13T13:43:39;24.37;;;18.00;;
2558;SDS011;1289;53.488;10.006;2023-02-13T13:46:16;22.73;;;16.63;;
2558;SDS011;1289;53.488;10.006;2023-02-13T13:51:38;24.37;;;16.37;;
2558;SDS011;1289;53.488;10.006;2023-02-13T13:54:24;21.97;;;15.87;;
2558;SDS011;1289;53.488;10.006;2023-02-13T13:57:07;24.13;;;16.57;;
2558;SDS011;1289;53.488;10.006;2023-02-13T14:02:39;23.00;;;16.07;;
2558;SDS011;1289;53.488;10.006;2023-02-13T14:05:20;23.77;;;16.07;;
2558;SDS011;1289;53.488;10.006;2023-02-13T14:07:52;24.33;;;17.03;;
2558;SDS011;1289;53.488;10.006;2023-02-13T14:13:29;25.70;;;17.30;;
2558;SDS011;1289;53.488;10.006;2023-02-13T14:15:57;23.47;;;16.20;;
2558;SDS011;1289;53.488;10.006;2023-02-13T14:18:24;24.10;;;17.90;;
2558;SDS011;1289;53.488;10.006;2023-02-13T14:20:52;21.20;;;16.47;;
2558;SDS011;1289;53.488;10.006;2023-02-13T14:23:34;25.37;;;16.60;;
2558;SDS011;1289;53.488;10.006;2023-02-13T14:26:09;24.07;;;17.67;;
2558;SDS011;1289;53.488;10.006;2023-02-13T14:28:39;22.13;;;15.40;;
2558;SDS011;1289;53.488;10.006;2023-02-13T14:31:07;25.30;;;16.47;;
2558;SDS011;1289;53.488;10.006;2023-02-13T14:33:40;20.33;;;15.30;;
2558;SDS011;1289;53.488;10.006;2023-02-13T14:36:07;20.87;;;17.10;;
2558;SDS011;1289;53.488;10.006;2023-02-13T14:38:42;22.20;;;17.50;;
2558;SDS011;1289;53.488;10.006;2023-02-13T14:44:15;24.30;;;18.57;;
2558;SDS011;1289;53.488;10.006;2023-02-13T14:46:43;24.30;;;17.93;;
2558;SDS011;1289;53.488;10.006;2023-02-13T14:49:11;24.50;;;16.90;;
2558;SDS011;1289;53.488;10.006;2023-02-13T14:51:40;28.17;;;17.77;;
2558;SDS011;1289;53.488;10.006;2023-02-13T14:54:14;28.10;;;19.00;;
2558;SDS011;1289;53.488;10.006;2023-02-13T14:56:45;25.50;;;18.53;;
2558;SDS011;1289;53.488;10.006;2023-02-13T14:59:13;24.80;;;18.70;;
2558;SDS011;1289;53.488;10.006;2023-02-13T15:01:46;25.80;;;19.30;;
2558;SDS011;1289;53.488;10.006;2023-02-13T15:04:16;26.60;;;19.90;;
2558;SDS011;1289;53.488;10.006;2023-02-13T15:06:46;26.00;;;17.70;;
2558;SDS011;1289;53.488;10.006;2023-02-13T15:09:16;27.07;;;18.60;;
2558;SDS011;1289;53.488;10.006;2023-02-13T15:11:46;27.17;;;17.90;;
2558;SDS011;1289;53.488;10.006;2023-02-13T15:14:18;26.47;;;18.23;;